CheckWX is a tool to help pilots better visualize weather data.  It is not intended as a substitute for an official pre-flight weather briefing.

12:04:36 UTC

KBTL TAF
W K Kellogg Airport
Battle Creek, Michigan, USA
KBTL 261140Z 2612/2712 26008KT P6SM SKC FM261900 26010G18KT P6SM SKC FM262300 30006KT P6SM SKC FM270700 VRB04KT P6SM SKC

Jun-26@
12:00 UTC

Jun-26 @ 12:00 UTC

Jun-26@
19:00 UTC

Jun-26 @ 19:00 UTC

KBTL 261140Z 2612/2712 26008KT P6SM SKC
Wind
  • 260° at 8 KTS
Cloud Levels
  • Clear skies

Jun-26@
19:00 UTC

Jun-26 @ 19:00 UTC

Jun-26@
23:00 UTC

Jun-26 @ 23:00 UTC

FM261900 26010G18KT P6SM SKC

From

From Standard forecast or significant change

Wind
  • 260° at 10 KTS
  • {Gusting to 18 KTS
Cloud Levels
  • Clear skies

Jun-26@
23:00 UTC

Jun-26 @ 23:00 UTC

Jun-27@
07:00 UTC

Jun-27 @ 07:00 UTC

FM262300 30006KT P6SM SKC

From

From Standard forecast or significant change

Wind
  • 300° at 6 KTS
Cloud Levels
  • Clear skies

Jun-27@
07:00 UTC

Jun-27 @ 07:00 UTC

Jun-27@
12:00 UTC

Jun-27 @ 12:00 UTC

FM270700 VRB04KT P6SM SKC

From

From Standard forecast or significant change

Wind
  • Variable at 4 KTS
Cloud Levels
  • Clear skies